sensor_id;sensor_type;location;lat;lon;timestamp;pressure;altitude;pressure_sealevel;temperature;humidity
71774;BME280;59607;52.130;5.430;2023-04-03T00:02:17;103198.78;;;3.49;74.72
71774;BME280;59607;52.130;5.430;2023-04-03T00:04:48;103191.09;;;3.45;75.59
71774;BME280;59607;52.130;5.430;2023-04-03T00:07:15;103209.25;;;3.45;75.53
71774;BME280;59607;52.130;5.430;2023-04-03T00:09:44;103203.34;;;3.42;75.65
71774;BME280;59607;52.130;5.430;2023-04-03T00:12:15;103205.94;;;3.42;75.80
71774;BME280;59607;52.130;5.430;2023-04-03T00:14:41;103196.50;;;3.39;75.85
71774;BME280;59607;52.130;5.430;2023-04-03T00:17:11;103201.75;;;3.38;75.83
71774;BME280;59607;52.130;5.430;2023-04-03T00:19:37;103201.81;;;3.36;76.07
71774;BME280;59607;52.130;5.430;2023-04-03T00:22:04;103201.91;;;3.33;76.07
71774;BME280;59607;52.130;5.430;2023-04-03T00:24:30;103206.38;;;3.29;76.14
71774;BME280;59607;52.130;5.430;2023-04-03T00:27:02;103203.88;;;3.26;76.68
71774;BME280;59607;52.130;5.430;2023-04-03T00:29:29;103205.72;;;3.24;76.49
71774;BME280;59607;52.130;5.430;2023-04-03T00:32:05;103206.59;;;3.23;77.01
71774;BME280;59607;52.130;5.430;2023-04-03T00:34:31;103213.59;;;3.21;77.36
71774;BME280;59607;52.130;5.430;2023-04-03T00:36:57;103211.06;;;3.19;77.54
71774;BME280;59607;52.130;5.430;2023-04-03T00:39:30;103205.03;;;3.19;77.85
71774;BME280;59607;52.130;5.430;2023-04-03T00:41:56;103211.94;;;3.18;77.63
71774;BME280;59607;52.130;5.430;2023-04-03T00:47:07;103217.31;;;3.14;77.92
71774;BME280;59607;52.130;5.430;2023-04-03T00:49:35;103219.09;;;3.12;78.25
71774;BME280;59607;52.130;5.430;2023-04-03T00:52:04;103220.84;;;3.11;78.57
71774;BME280;59607;52.130;5.430;2023-04-03T00:54:51;103216.59;;;3.08;79.12
71774;BME280;59607;52.130;5.430;2023-04-03T00:57:21;103220.97;;;3.08;79.41
71774;BME280;59607;52.130;5.430;2023-04-03T00:59:52;103224.44;;;3.07;79.60
71774;BME280;59607;52.130;5.430;2023-04-03T01:02:24;103222.75;;;3.06;79.96
71774;BME280;59607;52.130;5.430;2023-04-03T01:04:56;103223.66;;;3.05;80.11
71774;BME280;59607;52.130;5.430;2023-04-03T01:07:29;103227.09;;;3.05;79.96
71774;BME280;59607;52.130;5.430;2023-04-03T01:10:09;103219.53;;;2.99;80.19
71774;BME280;59607;52.130;5.430;2023-04-03T01:12:44;103229.94;;;2.98;80.61
71774;BME280;59607;52.130;5.430;2023-04-03T01:15:26;103225.78;;;2.93;81.44
71774;BME280;59607;52.130;5.430;2023-04-03T01:18:04;103227.56;;;2.91;81.74
71774;BME280;59607;52.130;5.430;2023-04-03T01:24:03;103235.47;;;2.88;82.41
71774;BME280;59607;52.130;5.430;2023-04-03T01:26:38;103230.28;;;2.88;83.07
71774;BME280;59607;52.130;5.430;2023-04-03T01:29:05;103224.28;;;2.86;82.91
71774;BME280;59607;52.130;5.430;2023-04-03T01:32:08;103226.94;;;2.84;83.05
71774;BME280;59607;52.130;5.430;2023-04-03T01:34:35;103217.47;;;2.83;83.36
71774;BME280;59607;52.130;5.430;2023-04-03T01:37:01;103231.31;;;2.82;83.94
71774;BME280;59607;52.130;5.430;2023-04-03T01:39:27;103226.22;;;2.79;84.12
71774;BME280;59607;52.130;5.430;2023-04-03T01:42:00;103230.53;;;2.80;84.09
71774;BME280;59607;52.130;5.430;2023-04-03T01:44:30;103222.88;;;2.77;84.38
71774;BME280;59607;52.130;5.430;2023-04-03T01:47:00;103221.22;;;2.75;85.01
71774;BME280;59607;52.130;5.430;2023-04-03T01:49:30;103223.91;;;2.71;85.31
71774;BME280;59607;52.130;5.430;2023-04-03T01:51:56;103227.41;;;2.70;85.37
71774;BME280;59607;52.130;5.430;2023-04-03T01:54:23;103226.59;;;2.68;85.05
71774;BME280;59607;52.130;5.430;2023-04-03T01:56:53;103225.84;;;2.65;85.57
71774;BME280;59607;52.130;5.430;2023-04-03T01:59:19;103226.75;;;2.64;86.65
71774;BME280;59607;52.130;5.430;2023-04-03T02:01:50;103225.16;;;2.59;86.32
71774;BME280;59607;52.130;5.430;2023-04-03T02:04:17;103227.78;;;2.58;86.77
71774;BME280;59607;52.130;5.430;2023-04-03T02:06:43;103234.84;;;2.54;87.22
71774;BME280;59607;52.130;5.430;2023-04-03T02:09:15;103228.84;;;2.52;87.61
71774;BME280;59607;52.130;5.430;2023-04-03T02:11:46;103230.63;;;2.50;88.06
71774;BME280;59607;52.130;5.430;2023-04-03T02:14:13;103238.41;;;2.50;87.79
71774;BME280;59607;52.130;5.430;2023-04-03T02:16:46;103239.31;;;2.49;88.18
71774;BME280;59607;52.130;5.430;2023-04-03T02:19:12;103240.22;;;2.48;88.25
71774;BME280;59607;52.130;5.430;2023-04-03T02:21:42;103245.44;;;2.46;88.58
71774;BME280;59607;52.130;5.430;2023-04-03T02:24:08;103248.09;;;2.43;89.64
71774;BME280;59607;52.130;5.430;2023-04-03T02:26:35;103247.28;;;2.43;89.46
71774;BME280;59607;52.130;5.430;2023-04-03T02:29:01;103241.19;;;2.44;89.29
71774;BME280;59607;52.130;5.430;2023-04-03T02:31:37;103236.94;;;2.43;90.00
71774;BME280;59607;52.130;5.430;2023-04-03T02:34:03;103244.69;;;2.43;90.28
71774;BME280;59607;52.130;5.430;2023-04-03T02:36:31;103242.09;;;2.43;90.22
71774;BME280;59607;52.130;5.430;2023-04-03T02:39:07;103236.13;;;2.41;90.24
71774;BME280;59607;52.130;5.430;2023-04-03T02:41:51;103248.22;;;2.40;90.83
71774;BME280;59607;52.130;5.430;2023-04-03T02:44:20;103243.03;;;2.40;91.06
71774;BME280;59607;52.130;5.430;2023-04-03T02:46:46;103245.63;;;2.40;90.88
71774;BME280;59607;52.130;5.430;2023-04-03T02:49:13;103249.94;;;2.41;90.96
71774;BME280;59607;52.130;5.430;2023-04-03T02:51:46;103254.28;;;2.39;91.33
71774;BME280;59607;52.130;5.430;2023-04-03T02:54:13;103256.88;;;2.39;91.72
71774;BME280;59607;52.130;5.430;2023-04-03T02:56:42;103263.69;;;2.42;92.13
71774;BME280;59607;52.130;5.430;2023-04-03T02:59:09;103266.38;;;2.39;92.12
71774;BME280;59607;52.130;5.430;2023-04-03T03:01:35;103272.38;;;2.41;91.65
71774;BME280;59607;52.130;5.430;2023-04-03T03:04:02;103268.97;;;2.39;92.35
71774;BME280;59607;52.130;5.430;2023-04-03T03:06:33;103265.56;;;2.38;91.99
71774;BME280;59607;52.130;5.430;2023-04-03T03:09:00;103278.50;;;2.38;92.76
71774;BME280;59607;52.130;5.430;2023-04-03T03:11:26;103281.19;;;2.35;92.80
71774;BME280;59607;52.130;5.430;2023-04-03T03:13:58;103286.34;;;2.37;93.14
71774;BME280;59607;52.130;5.430;2023-04-03T03:16:25;103287.22;;;2.36;93.22
71774;BME280;59607;52.130;5.430;2023-04-03T03:18:55;103285.56;;;2.33;93.34
71774;BME280;59607;52.130;5.430;2023-04-03T03:21:25;103283.84;;;2.33;93.92
71774;BME280;59607;52.130;5.430;2023-04-03T03:23:53;103284.75;;;2.31;93.63
71774;BME280;59607;52.130;5.430;2023-04-03T03:26:19;103289.19;;;2.27;94.16
71774;BME280;59607;52.130;5.430;2023-04-03T03:28:46;103284.91;;;2.26;94.12
71774;BME280;59607;52.130;5.430;2023-04-03T03:31:12;103281.50;;;2.24;94.04
71774;BME280;59607;52.130;5.430;2023-04-03T03:33:39;103281.56;;;2.22;94.76
71774;BME280;59607;52.130;5.430;2023-04-03T03:36:06;103287.69;;;2.20;94.65
71774;BME280;59607;52.130;5.430;2023-04-03T03:38:37;103288.66;;;2.16;95.28
71774;BME280;59607;52.130;5.430;2023-04-03T03:41:13;103297.31;;;2.15;95.37
71774;BME280;59607;52.130;5.430;2023-04-03T03:43:39;103288.78;;;2.11;95.38
71774;BME280;59607;52.130;5.430;2023-04-03T03:46:06;103292.34;;;2.08;95.99
71774;BME280;59607;52.130;5.430;2023-04-03T03:48:38;103288.09;;;2.06;95.88
71774;BME280;59607;52.130;5.430;2023-04-03T03:51:04;103286.34;;;2.06;96.21
71774;BME280;59607;52.130;5.430;2023-04-03T03:53:31;103292.59;;;1.99;96.43
71774;BME280;59607;52.130;5.430;2023-04-03T03:56:04;103290.84;;;2.00;97.18
71774;BME280;59607;52.130;5.430;2023-04-03T03:58:34;103296.84;;;2.02;96.80
71774;BME280;59607;52.130;5.430;2023-04-03T04:01:04;103297.78;;;1.99;97.20
71774;BME280;59607;52.130;5.430;2023-04-03T04:03:34;103293.47;;;1.98;98.00
71774;BME280;59607;52.130;5.430;2023-04-03T04:06:02;103300.47;;;1.96;97.26
71774;BME280;59607;52.130;5.430;2023-04-03T04:08:39;103298.72;;;1.96;97.24
71774;BME280;59607;52.130;5.430;2023-04-03T04:11:06;103293.66;;;1.92;97.56
71774;BME280;59607;52.130;5.430;2023-04-03T04:13:35;103297.09;;;1.92;98.50
71774;BME280;59607;52.130;5.430;2023-04-03T04:16:02;103296.25;;;1.92;98.61
71774;BME280;59607;52.130;5.430;2023-04-03T04:18:34;103303.28;;;1.88;98.44
71774;BME280;59607;52.130;5.430;2023-04-03T04:21:00;103308.47;;;1.87;98.81
71774;BME280;59607;52.130;5.430;2023-04-03T04:23:28;103303.34;;;1.85;98.50
71774;BME280;59607;52.130;5.430;2023-04-03T04:26:00;103310.38;;;1.81;99.05
71774;BME280;59607;52.130;5.430;2023-04-03T04:28:26;103312.94;;;1.81;99.65
71774;BME280;59607;52.130;5.430;2023-04-03T04:31:03;103314.72;;;1.79;100.00
71774;BME280;59607;52.130;5.430;2023-04-03T04:33:31;103320.81;;;1.78;99.54
71774;BME280;59607;52.130;5.430;2023-04-03T04:36:13;103312.22;;;1.76;100.00
71774;BME280;59607;52.130;5.430;2023-04-03T04:38:46;103314.00;;;1.74;100.00
71774;BME280;59607;52.130;5.430;2023-04-03T04:41:12;103315.75;;;1.74;100.00
71774;BME280;59607;52.130;5.430;2023-04-03T04:43:39;103314.91;;;1.73;100.00
71774;BME280;59607;52.130;5.430;2023-04-03T04:46:10;103321.75;;;1.74;100.00
71774;BME280;59607;52.130;5.430;2023-04-03T04:48:38;103328.72;;;1.72;100.00
71774;BME280;59607;52.130;5.430;2023-04-03T04:51:05;103330.44;;;1.73;100.00
71774;BME280;59607;52.130;5.430;2023-04-03T04:53:37;103319.25;;;1.71;100.00
71774;BME280;59607;52.130;5.430;2023-04-03T04:56:05;103326.16;;;1.70;100.00
71774;BME280;59607;52.130;5.430;2023-04-03T04:58:37;103318.34;;;1.72;100.00
71774;BME280;59607;52.130;5.430;2023-04-03T05:01:09;103317.50;;;1.73;100.00
71774;BME280;59607;52.130;5.430;2023-04-03T05:03:41;103321.00;;;1.70;100.00
71774;BME280;59607;52.130;5.430;2023-04-03T05:06:08;103328.00;;;1.67;100.00
71774;BME280;59607;52.130;5.430;2023-04-03T05:08:37;103321.06;;;1.67;100.00
71774;BME280;59607;52.130;5.430;2023-04-03T05:11:04;103333.97;;;1.69;100.00
71774;BME280;59607;52.130;5.430;2023-04-03T05:13:30;103333.13;;;1.68;100.00
71774;BME280;59607;52.130;5.430;2023-04-03T05:16:03;103327.97;;;1.68;100.00
71774;BME280;59607;52.130;5.430;2023-04-03T05:18:32;103336.56;;;1.69;100.00
71774;BME280;59607;52.130;5.430;2023-04-03T05:20:58;103333.09;;;1.70;100.00
71774;BME280;59607;52.130;5.430;2023-04-03T05:23:31;103332.16;;;1.72;100.00
71774;BME280;59607;52.130;5.430;2023-04-03T05:25:58;103340.84;;;1.70;100.00
71774;BME280;59607;52.130;5.430;2023-04-03T05:28:27;103346.72;;;1.77;100.00
71774;BME280;59607;52.130;5.430;2023-04-03T05:30:58;103342.25;;;2.42;100.00
71774;BME280;59607;52.130;5.430;2023-04-03T05:33:27;103336.16;;;3.77;94.45
71774;BME280;59607;52.130;5.430;2023-04-03T05:36:03;103335.25;;;4.49;87.77
71774;BME280;59607;52.130;5.430;2023-04-03T05:38:34;103331.75;;;5.15;83.40
71774;BME280;59607;52.130;5.430;2023-04-03T05:41:03;103331.88;;;5.73;78.02
71774;BME280;59607;52.130;5.430;2023-04-03T05:43:30;103332.25;;;6.04;75.48
71774;BME280;59607;52.130;5.430;2023-04-03T05:45:59;103337.22;;;6.10;72.87
71774;BME280;59607;52.130;5.430;2023-04-03T05:48:25;103338.75;;;6.34;72.60
71774;BME280;59607;52.130;5.430;2023-04-03T05:50:52;103331.88;;;7.05;70.28
71774;BME280;59607;52.130;5.430;2023-04-03T05:53:25;103340.69;;;7.38;67.32
71774;BME280;59607;52.130;5.430;2023-04-03T05:55:54;103347.28;;;7.27;66.35
71774;BME280;59607;52.130;5.430;2023-04-03T05:58:24;103350.94;;;7.59;65.60
71774;BME280;59607;52.130;5.430;2023-04-03T06:00:57;103342.75;;;8.15;64.58
71774;BME280;59607;52.130;5.430;2023-04-03T06:03:30;103351.19;;;7.88;62.97
71774;BME280;59607;52.130;5.430;2023-04-03T06:06:02;103350.25;;;8.05;63.43
71774;BME280;59607;52.130;5.430;2023-04-03T06:08:32;103357.66;;;7.97;62.92
71774;BME280;59607;52.130;5.430;2023-04-03T06:10:59;103356.53;;;7.69;62.84
71774;BME280;59607;52.130;5.430;2023-04-03T06:13:25;103355.59;;;7.70;62.67
71774;BME280;59607;52.130;5.430;2023-04-03T06:15:55;103356.94;;;7.43;62.49
71774;BME280;59607;52.130;5.430;2023-04-03T06:18:22;103369.19;;;6.33;64.47
71774;BME280;59607;52.130;5.430;2023-04-03T06:20:49;103364.91;;;5.10;68.51
71774;BME280;59607;52.130;5.430;2023-04-03T06:23:16;103366.81;;;4.39;71.91
71774;BME280;59607;52.130;5.430;2023-04-03T06:25:48;103372.56;;;4.00;74.59
71774;BME280;59607;52.130;5.430;2023-04-03T06:28:14;103376.03;;;3.75;77.13
71774;BME280;59607;52.130;5.430;2023-04-03T06:30:44;103379.28;;;3.56;79.05
71774;BME280;59607;52.130;5.430;2023-04-03T06:33:13;103383.94;;;3.46;80.50
71774;BME280;59607;52.130;5.430;2023-04-03T06:35:42;103387.44;;;3.45;80.75
71774;BME280;59607;52.130;5.430;2023-04-03T06:38:14;103385.66;;;3.47;81.66
71774;BME280;59607;52.130;5.430;2023-04-03T06:40:40;103385.84;;;3.41;81.79
71774;BME280;59607;52.130;5.430;2023-04-03T06:43:07;103391.50;;;3.27;82.19
71774;BME280;59607;52.130;5.430;2023-04-03T06:45:39;103395.59;;;3.34;83.46
71774;BME280;59607;52.130;5.430;2023-04-03T06:48:05;103389.28;;;3.41;82.91
71774;BME280;59607;52.130;5.430;2023-04-03T06:50:41;103390.25;;;3.39;83.36
71774;BME280;59607;52.130;5.430;2023-04-03T06:53:08;103392.53;;;3.48;83.49
71774;BME280;59607;52.130;5.430;2023-04-03T06:55:39;103401.78;;;3.55;82.80
71774;BME280;59607;52.130;5.430;2023-04-03T06:58:06;103405.13;;;3.59;82.69
71774;BME280;59607;52.130;5.430;2023-04-03T07:00:32;103412.81;;;3.62;81.90
71774;BME280;59607;52.130;5.430;2023-04-03T07:03:00;103403.34;;;3.61;80.24
71774;BME280;59607;52.130;5.430;2023-04-03T07:05:30;103416.47;;;3.56;81.08
71774;BME280;59607;52.130;5.430;2023-04-03T07:07:57;103413.66;;;3.63;81.50
71774;BME280;59607;52.130;5.430;2023-04-03T07:10:26;103421.56;;;3.60;81.38
71774;BME280;59607;52.130;5.430;2023-04-03T07:12:59;103428.66;;;3.54;80.61
71774;BME280;59607;52.130;5.430;2023-04-03T07:15:31;103428.44;;;3.61;80.74
71774;BME280;59607;52.130;5.430;2023-04-03T07:18:07;103421.25;;;3.69;80.31
71774;BME280;59607;52.130;5.430;2023-04-03T07:20:39;103418.06;;;3.86;79.07
71774;BME280;59607;52.130;5.430;2023-04-03T07:23:06;103423.34;;;3.83;78.35
71774;BME280;59607;52.130;5.430;2023-04-03T07:25:42;103429.56;;;3.79;78.31
71774;BME280;59607;52.130;5.430;2023-04-03T07:28:09;103426.97;;;3.79;78.32
71774;BME280;59607;52.130;5.430;2023-04-03T07:30:49;103440.31;;;3.93;77.77
71774;BME280;59607;52.130;5.430;2023-04-03T07:33:18;103435.59;;;4.05;77.28
71774;BME280;59607;52.130;5.430;2023-04-03T07:35:49;103426.94;;;4.04;76.04
71774;BME280;59607;52.130;5.430;2023-04-03T07:38:16;103429.09;;;4.17;76.83
71774;BME280;59607;52.130;5.430;2023-04-03T07:40:51;103436.34;;;4.32;76.71
71774;BME280;59607;52.130;5.430;2023-04-03T07:43:21;103443.38;;;4.53;75.04
71774;BME280;59607;52.130;5.430;2023-04-03T07:46:05;103438.69;;;4.63;73.41
71774;BME280;59607;52.130;5.430;2023-04-03T07:48:35;103437.22;;;4.79;72.96
71774;BME280;59607;52.130;5.430;2023-04-03T07:51:03;103432.75;;;4.83;71.88
71774;BME280;59607;52.130;5.430;2023-04-03T07:53:30;103439.94;;;4.76;70.37
71774;BME280;59607;52.130;5.430;2023-04-03T07:55:59;103444.56;;;4.68;70.35
71774;BME280;59607;52.130;5.430;2023-04-03T07:58:26;103451.13;;;4.78;70.12
71774;BME280;59607;52.130;5.430;2023-04-03T08:00:57;103448.41;;;4.81;68.99
71774;BME280;59607;52.130;5.430;2023-04-03T08:03:34;103440.94;;;4.72;68.29
71774;BME280;59607;52.130;5.430;2023-04-03T08:06:17;103438.72;;;4.85;68.17
71774;BME280;59607;52.130;5.430;2023-04-03T08:09:02;103427.84;;;4.98;67.32
71774;BME280;59607;52.130;5.430;2023-04-03T08:11:33;103437.34;;;4.99;66.38
71774;BME280;59607;52.130;5.430;2023-04-03T08:14:02;103436.84;;;5.11;66.24
71774;BME280;59607;52.130;5.430;2023-04-03T08:16:32;103438.72;;;5.30;65.99
71774;BME280;59607;52.130;5.430;2023-04-03T08:18:59;103448.22;;;5.52;65.31
71774;BME280;59607;52.130;5.430;2023-04-03T08:21:40;103453.28;;;5.55;65.19
71774;BME280;59607;52.130;5.430;2023-04-03T08:24:11;103446.41;;;5.54;62.95
71774;BME280;59607;52.130;5.430;2023-04-03T08:26:44;103451.69;;;5.73;63.37
71774;BME280;59607;52.130;5.430;2023-04-03T08:29:18;103447.88;;;6.01;62.50
71774;BME280;59607;52.130;5.430;2023-04-03T08:31:44;103453.00;;;6.04;60.90
71774;BME280;59607;52.130;5.430;2023-04-03T08:34:15;103458.44;;;6.19;60.93
71774;BME280;59607;52.130;5.430;2023-04-03T08:36:42;103467.97;;;6.39;61.57
71774;BME280;59607;52.130;5.430;2023-04-03T08:39:09;103463.59;;;6.40;57.87
71774;BME280;59607;52.130;5.430;2023-04-03T08:41:47;103465.63;;;6.33;57.14
71774;BME280;59607;52.130;5.430;2023-04-03T08:50:30;103471.56;;;6.56;55.34
71774;BME280;59607;52.130;5.430;2023-04-03T08:52:58;103462.97;;;6.73;54.45
71774;BME280;59607;52.130;5.430;2023-04-03T08:55:49;103464.75;;;6.73;50.43
71774;BME280;59607;52.130;5.430;2023-04-03T08:58:22;103458.53;;;6.75;49.07
71774;BME280;59607;52.130;5.430;2023-04-03T09:00:58;103463.97;;;6.71;46.18
71774;BME280;59607;52.130;5.430;2023-04-03T09:03:30;103469.88;;;6.74;46.69
71774;BME280;59607;52.130;5.430;2023-04-03T09:06:29;103458.88;;;6.68;47.04
71774;BME280;59607;52.130;5.430;2023-04-03T09:09:33;103455.06;;;6.94;48.84
71774;BME280;59607;52.130;5.430;2023-04-03T09:12:26;103450.91;;;7.08;48.28
71774;BME280;59607;52.130;5.430;2023-04-03T09:15:17;103457.88;;;7.26;47.57
71774;BME280;59607;52.130;5.430;2023-04-03T09:23:53;103457.09;;;7.42;43.98
71774;BME280;59607;52.130;5.430;2023-04-03T09:26:36;103449.19;;;7.26;42.68
71774;BME280;59607;52.130;5.430;2023-04-03T09:29:08;103462.47;;;7.39;43.04
71774;BME280;59607;52.130;5.430;2023-04-03T09:31:42;103455.84;;;7.49;40.38
71774;BME280;59607;52.130;5.430;2023-04-03T09:34:36;103450.88;;;7.45;40.99
71774;BME280;59607;52.130;5.430;2023-04-03T09:37:04;103451.56;;;7.48;40.25
71774;BME280;59607;52.130;5.430;2023-04-03T09:39:50;103449.34;;;7.58;38.91
71774;BME280;59607;52.130;5.430;2023-04-03T09:42:22;103438.97;;;7.39;37.94
71774;BME280;59607;52.130;5.430;2023-04-03T09:47:33;103442.81;;;7.49;37.81
71774;BME280;59607;52.130;5.430;2023-04-03T09:50:20;103438.97;;;7.57;38.41
71774;BME280;59607;52.130;5.430;2023-04-03T09:52:51;103437.72;;;7.64;38.70
71774;BME280;59607;52.130;5.430;2023-04-03T09:55:27;103437.94;;;7.77;36.98
71774;BME280;59607;52.130;5.430;2023-04-03T09:58:04;103435.56;;;7.72;38.25
71774;BME280;59607;52.130;5.430;2023-04-03T10:00:37;103423.16;;;7.94;38.60
71774;BME280;59607;52.130;5.430;2023-04-03T10:03:34;103425.81;;;8.10;39.72
71774;BME280;59607;52.130;5.430;2023-04-03T10:06:21;103405.66;;;8.12;39.84
71774;BME280;59607;52.130;5.430;2023-04-03T10:09:04;103401.78;;;8.19;39.43
71774;BME280;59607;52.130;5.430;2023-04-03T10:12:12;103404.41;;;8.35;39.40
71774;BME280;59607;52.130;5.430;2023-04-03T10:23:25;103397.56;;;8.49;38.37
71774;BME280;59607;52.130;5.430;2023-04-03T10:34:33;103385.44;;;8.48;35.36
71774;BME280;59607;52.130;5.430;2023-04-03T10:37:29;103383.72;;;8.47;36.33
71774;BME280;59607;52.130;5.430;2023-04-03T10:41:08;103362.16;;;8.43;36.52
71774;BME280;59607;52.130;5.430;2023-04-03T10:43:53;103354.88;;;8.64;36.14
71774;BME280;59607;52.130;5.430;2023-04-03T10:46:35;103358.25;;;8.50;35.37
71774;BME280;59607;52.130;5.430;2023-04-03T10:52:08;103358.00;;;8.71;35.81
71774;BME280;59607;52.130;5.430;2023-04-03T10:57:49;103355.25;;;8.89;35.45
71774;BME280;59607;52.130;5.430;2023-04-03T11:00:40;103354.19;;;8.77;35.39
71774;BME280;59607;52.130;5.430;2023-04-03T11:03:22;103353.03;;;8.67;35.10
71774;BME280;59607;52.130;5.430;2023-04-03T11:06:10;103359.88;;;8.69;36.01
71774;BME280;59607;52.130;5.430;2023-04-03T11:11:42;103352.34;;;9.10;36.25
71774;BME280;59607;52.130;5.430;2023-04-03T11:16:46;103344.03;;;9.18;35.91
71774;BME280;59607;52.130;5.430;2023-04-03T11:19:22;103344.41;;;9.26;36.68
71774;BME280;59607;52.130;5.430;2023-04-03T11:22:33;103344.66;;;9.21;36.54
71774;BME280;59607;52.130;5.430;2023-04-03T11:25:43;103334.97;;;9.38;37.18
71774;BME280;59607;52.130;5.430;2023-04-03T11:28:03;103338.34;;;9.55;37.63
71774;BME280;59607;52.130;5.430;2023-04-03T11:30:44;103332.63;;;9.48;36.87
71774;BME280;59607;52.130;5.430;2023-04-03T11:35:48;103346.31;;;9.68;37.36
71774;BME280;59607;52.130;5.430;2023-04-03T11:38:28;103333.47;;;9.48;35.51
71774;BME280;59607;52.130;5.430;2023-04-03T11:40:57;103349.84;;;9.37;36.14
71774;BME280;59607;52.130;5.430;2023-04-03T11:43:32;103331.53;;;9.37;36.61
71774;BME280;59607;52.130;5.430;2023-04-03T11:46:07;103328.63;;;9.42;35.70
71774;BME280;59607;52.130;5.430;2023-04-03T11:48:49;103332.72;;;9.32;35.99
71774;BME280;59607;52.130;5.430;2023-04-03T11:58:12;103336.91;;;9.34;36.55
71774;BME280;59607;52.130;5.430;2023-04-03T12:16:23;103296.97;;;10.17;36.49
71774;BME280;59607;52.130;5.430;2023-04-03T12:27:00;103282.84;;;10.05;35.16
71774;BME280;59607;52.130;5.430;2023-04-03T12:29:40;103272.06;;;10.09;35.34
71774;BME280;59607;52.130;5.430;2023-04-03T12:36:05;103259.44;;;10.29;35.46
71774;BME280;59607;52.130;5.430;2023-04-03T12:39:02;103256.22;;;10.39;36.34
71774;BME280;59607;52.130;5.430;2023-04-03T12:47:35;103260.19;;;10.31;36.69
71774;BME280;59607;52.130;5.430;2023-04-03T12:50:23;103253.34;;;10.29;36.28
71774;BME280;59607;52.130;5.430;2023-04-03T12:53:16;103259.84;;;10.23;37.26
71774;BME280;59607;52.130;5.430;2023-04-03T12:55:54;103239.41;;;10.28;36.70
71774;BME280;59607;52.130;5.430;2023-04-03T12:58:26;103246.13;;;10.32;36.12
71774;BME280;59607;52.130;5.430;2023-04-03T13:01:19;103233.63;;;10.23;35.82
71774;BME280;59607;52.130;5.430;2023-04-03T13:03:49;103237.38;;;10.19;36.66
71774;BME280;59607;52.130;5.430;2023-04-03T13:06:27;103235.28;;;10.52;36.04
71774;BME280;59607;52.130;5.430;2023-04-03T13:08:59;103233.00;;;10.32;35.79
71774;BME280;59607;52.130;5.430;2023-04-03T13:11:30;103223.38;;;10.33;35.66
71774;BME280;59607;52.130;5.430;2023-04-03T13:14:14;103232.38;;;10.29;36.10
71774;BME280;59607;52.130;5.430;2023-04-03T13:19:26;103225.75;;;10.64;35.86
71774;BME280;59607;52.130;5.430;2023-04-03T13:24:52;103217.97;;;10.62;36.80
71774;BME280;59607;52.130;5.430;2023-04-03T13:27:29;103214.41;;;10.63;36.47
71774;BME280;59607;52.130;5.430;2023-04-03T13:29:59;103210.72;;;10.66;36.41
71774;BME280;59607;52.130;5.430;2023-04-03T13:32:32;103211.56;;;10.66;35.92
71774;BME280;59607;52.130;5.430;2023-04-03T13:35:00;103210.22;;;10.60;36.69
71774;BME280;59607;52.130;5.430;2023-04-03T13:38:24;103212.00;;;10.73;37.50
71774;BME280;59607;52.130;5.430;2023-04-03T13:41:01;103212.41;;;10.54;36.36
71774;BME280;59607;52.130;5.430;2023-04-03T13:43:34;103210.44;;;10.70;36.79
71774;BME280;59607;52.130;5.430;2023-04-03T13:48:51;103220.72;;;10.73;36.50
71774;BME280;59607;52.130;5.430;2023-04-03T13:51:27;103216.94;;;10.78;35.77
71774;BME280;59607;52.130;5.430;2023-04-03T13:53:59;103211.78;;;10.63;35.52
71774;BME280;59607;52.130;5.430;2023-04-03T13:56:37;103217.28;;;10.45;35.60
71774;BME280;59607;52.130;5.430;2023-04-03T14:04:28;103207.50;;;10.75;36.63
71774;BME280;59607;52.130;5.430;2023-04-03T14:06:56;103206.22;;;10.81;36.03
71774;BME280;59607;52.130;5.430;2023-04-03T14:09:24;103205.91;;;10.72;36.38
71774;BME280;59607;52.130;5.430;2023-04-03T14:11:58;103201.94;;;10.80;35.14
71774;BME280;59607;52.130;5.430;2023-04-03T14:14:47;103204.53;;;10.54;36.51
71774;BME280;59607;52.130;5.430;2023-04-03T14:17:21;103188.16;;;10.63;35.59
71774;BME280;59607;52.130;5.430;2023-04-03T14:19:52;103187.22;;;10.77;36.81
71774;BME280;59607;52.130;5.430;2023-04-03T14:22:46;103182.06;;;10.76;36.50
71774;BME280;59607;52.130;5.430;2023-04-03T14:25:16;103179.44;;;10.76;36.68
71774;BME280;59607;52.130;5.430;2023-04-03T14:27:45;103176.22;;;10.59;37.21
71774;BME280;59607;52.130;5.430;2023-04-03T14:30:26;103177.03;;;10.59;36.75
71774;BME280;59607;52.130;5.430;2023-04-03T14:32:53;103171.88;;;10.58;36.72
71774;BME280;59607;52.130;5.430;2023-04-03T14:35:27;103170.06;;;10.45;37.57
71774;BME280;59607;52.130;5.430;2023-04-03T14:37:54;103170.00;;;10.47;37.27
71774;BME280;59607;52.130;5.430;2023-04-03T14:40:26;103162.03;;;10.48;36.57
71774;BME280;59607;52.130;5.430;2023-04-03T14:42:55;103154.88;;;10.51;35.47
71774;BME280;59607;52.130;5.430;2023-04-03T14:45:29;103162.13;;;10.47;36.33
71774;BME280;59607;52.130;5.430;2023-04-03T14:47:58;103160.34;;;10.47;37.55
71774;BME280;59607;52.130;5.430;2023-04-03T14:50:31;103167.88;;;10.39;37.68
71774;BME280;59607;52.130;5.430;2023-04-03T14:53:02;103162.81;;;10.23;37.61
71774;BME280;59607;52.130;5.430;2023-04-03T14:55:29;103165.22;;;10.26;38.86
71774;BME280;59607;52.130;5.430;2023-04-03T14:58:18;103155.38;;;10.43;39.29
71774;BME280;59607;52.130;5.430;2023-04-03T15:00:47;103158.22;;;10.53;39.04
71774;BME280;59607;52.130;5.430;2023-04-03T15:03:19;103155.09;;;10.47;38.85
71774;BME280;59607;52.130;5.430;2023-04-03T15:05:49;103158.06;;;10.56;38.96
71774;BME280;59607;52.130;5.430;2023-04-03T15:08:21;103161.03;;;10.36;38.31
71774;BME280;59607;52.130;5.430;2023-04-03T15:10:53;103148.22;;;10.32;37.84
71774;BME280;59607;52.130;5.430;2023-04-03T15:13:25;103154.97;;;10.36;38.17
71774;BME280;59607;52.130;5.430;2023-04-03T15:15:54;103159.03;;;10.27;38.17